createdAt,value
2023-04-02T00:01:19.354Z,100.00
2023-04-02T00:03:53.730Z,100.00
2023-04-02T00:06:30.360Z,100.00
2023-04-02T00:08:59.594Z,100.00
2023-04-02T00:11:36.010Z,100.00
2023-04-02T00:14:04.019Z,100.00
2023-04-02T00:16:31.216Z,100.00
2023-04-02T00:19:03.389Z,100.00
2023-04-02T00:21:32.434Z,100.00
2023-04-02T00:24:00.188Z,100.00
2023-04-02T00:26:35.131Z,100.00
2023-04-02T00:29:02.650Z,100.00
2023-04-02T00:31:29.700Z,100.00
2023-04-02T00:33:56.719Z,100.00
2023-04-02T00:36:23.688Z,100.00
2023-04-02T00:38:50.731Z,100.00
2023-04-02T00:41:23.403Z,100.00
2023-04-02T00:43:54.689Z,100.00
2023-04-02T00:46:24.372Z,100.00
2023-04-02T00:49:09.853Z,100.00
2023-04-02T00:51:38.805Z,100.00
2023-04-02T00:54:06.690Z,100.00
2023-04-02T00:56:54.504Z,100.00
2023-04-02T00:59:28.408Z,100.00
2023-04-02T01:02:14.937Z,100.00
2023-04-02T01:04:42.115Z,100.00
2023-04-02T01:07:10.606Z,100.00
2023-04-02T01:09:59.112Z,100.00
2023-04-02T01:12:41.612Z,100.00
2023-04-02T01:15:19.946Z,100.00
2023-04-02T01:17:59.013Z,100.00
2023-04-02T01:21:03.529Z,100.00
2023-04-02T01:23:30.344Z,100.00
2023-04-02T01:26:04.669Z,100.00
2023-04-02T01:29:08.979Z,100.00
2023-04-02T01:31:36.021Z,100.00
2023-04-02T01:34:04.213Z,100.00
2023-04-02T01:36:45.664Z,100.00
2023-04-02T01:39:25.315Z,100.00
2023-04-02T01:42:07.846Z,100.00
2023-04-02T01:45:02.524Z,100.00
2023-04-02T01:47:30.409Z,100.00
2023-04-02T01:50:01.283Z,100.00
2023-04-02T01:52:40.691Z,100.00
2023-04-02T01:55:13.281Z,100.00
2023-04-02T01:57:42.245Z,100.00
2023-04-02T02:00:14.717Z,100.00
2023-04-02T02:02:44.031Z,100.00
2023-04-02T02:05:15.768Z,100.00
2023-04-02T02:07:45.562Z,100.00
2023-04-02T02:10:16.875Z,100.00
2023-04-02T02:12:43.969Z,100.00
2023-04-02T02:15:18.139Z,100.00
2023-04-02T02:17:45.232Z,100.00
2023-04-02T02:20:12.973Z,100.00
2023-04-02T02:22:42.112Z,100.00
2023-04-02T02:25:16.044Z,100.00
2023-04-02T02:28:01.569Z,100.00
2023-04-02T02:30:53.324Z,100.00
2023-04-02T02:33:39.734Z,100.00
2023-04-02T02:36:29.524Z,100.00
2023-04-02T02:39:02.166Z,100.00
2023-04-02T02:41:41.970Z,100.00
2023-04-02T02:44:09.632Z,100.00
2023-04-02T02:46:39.507Z,100.00
2023-04-02T02:49:10.527Z,100.00
2023-04-02T02:52:03.760Z,100.00
2023-04-02T02:54:55.662Z,100.00
2023-04-02T02:57:30.039Z,100.00
2023-04-02T02:59:58.052Z,100.00
2023-04-02T03:02:25.504Z,100.00
2023-04-02T03:04:54.117Z,100.00
2023-04-02T03:07:25.723Z,100.00
2023-04-02T03:10:00.674Z,100.00
2023-04-02T03:12:30.432Z,100.00
2023-04-02T03:15:28.968Z,100.00
2023-04-02T03:17:59.853Z,100.00
2023-04-02T03:20:48.567Z,100.00
2023-04-02T03:23:30.845Z,100.00
2023-04-02T03:26:16.005Z,100.00
2023-04-02T03:29:14.445Z,100.00
2023-04-02T03:31:48.102Z,100.00
2023-04-02T03:34:21.550Z,100.00
2023-04-02T03:36:57.856Z,100.00
2023-04-02T03:40:00.453Z,100.00
2023-04-02T03:42:29.874Z,100.00
2023-04-02T03:45:05.678Z,100.00
2023-04-02T03:47:38.717Z,100.00
2023-04-02T03:50:21.713Z,100.00
2023-04-02T03:52:49.645Z,100.00
2023-04-02T03:55:25.962Z,100.00
2023-04-02T03:57:55.815Z,100.00
2023-04-02T04:00:27.202Z,100.00
2023-04-02T04:02:59.383Z,100.00
2023-04-02T04:05:34.029Z,100.00
2023-04-02T04:08:04.462Z,100.00
2023-04-02T04:10:31.872Z,100.00
2023-04-02T04:13:05.089Z,100.00
2023-04-02T04:15:54.544Z,100.00
2023-04-02T04:18:46.691Z,100.00
2023-04-02T04:21:22.856Z,100.00
2023-04-02T04:23:50.791Z,100.00
2023-04-02T04:26:21.382Z,100.00
2023-04-02T04:29:17.641Z,100.00
2023-04-02T04:31:55.990Z,100.00
2023-04-02T04:34:42.431Z,100.00
2023-04-02T04:37:29.273Z,100.00
2023-04-02T04:40:16.678Z,100.00
2023-04-02T04:42:43.902Z,100.00
2023-04-02T04:45:17.171Z,100.00
2023-04-02T04:47:50.624Z,100.00
2023-04-02T04:50:17.402Z,100.00
2023-04-02T04:52:44.656Z,100.00
2023-04-02T04:55:38.215Z,100.00
2023-04-02T04:58:24.780Z,100.00
2023-04-02T05:01:08.274Z,100.00
2023-04-02T05:03:39.899Z,100.00
2023-04-02T05:06:33.393Z,100.00
2023-04-02T05:09:07.499Z,100.00
2023-04-02T05:11:47.286Z,100.00
2023-04-02T05:14:24.896Z,100.00
2023-04-02T05:17:15.797Z,100.00
2023-04-02T05:19:48.229Z,100.00
2023-04-02T05:22:18.006Z,100.00
2023-04-02T05:24:51.355Z,100.00
2023-04-02T05:27:49.866Z,100.00
2023-04-02T05:30:29.018Z,100.00
2023-04-02T05:33:05.148Z,100.00
2023-04-02T05:35:34.676Z,100.00
2023-04-02T05:38:02.409Z,100.00
2023-04-02T05:40:40.210Z,100.00
2023-04-02T05:43:11.114Z,100.00
2023-04-02T05:45:43.557Z,100.00
2023-04-02T05:48:17.553Z,100.00
2023-04-02T05:50:46.190Z,100.00
2023-04-02T05:53:36.259Z,100.00
2023-04-02T05:56:08.262Z,100.00
2023-04-02T05:58:53.352Z,100.00
2023-04-02T06:01:48.366Z,100.00
2023-04-02T06:04:45.002Z,100.00
2023-04-02T06:07:18.484Z,100.00
2023-04-02T06:09:57.226Z,100.00
2023-04-02T06:12:34.906Z,100.00
2023-04-02T06:15:07.766Z,100.00
2023-04-02T06:17:55.024Z,100.00
2023-04-02T06:20:25.524Z,100.00
2023-04-02T06:23:11.358Z,100.00
2023-04-02T06:25:52.383Z,100.00
2023-04-02T06:28:42.288Z,100.00
2023-04-02T06:31:38.371Z,100.00
2023-04-02T06:34:25.110Z,100.00
2023-04-02T06:37:14.127Z,100.00
2023-04-02T06:39:46.111Z,100.00
2023-04-02T06:45:42.944Z,100.00
2023-04-02T06:48:35.456Z,100.00
2023-04-02T06:51:15.104Z,100.00
2023-04-02T06:53:51.726Z,100.00
2023-04-02T06:56:47.832Z,100.00
2023-04-02T06:59:30.506Z,100.00
2023-04-02T07:02:27.502Z,100.00
2023-04-02T07:05:13.318Z,100.00
2023-04-02T07:08:09.113Z,100.00
2023-04-02T07:10:59.848Z,100.00
2023-04-02T07:13:37.055Z,100.00
2023-04-02T07:16:17.620Z,100.00
2023-04-02T07:18:47.675Z,100.00
2023-04-02T07:21:17.418Z,100.00
2023-04-02T07:23:52.666Z,100.00
2023-04-02T07:26:26.330Z,100.00
2023-04-02T07:28:57.870Z,100.00
2023-04-02T07:31:30.734Z,100.00
2023-04-02T07:34:03.380Z,100.00
2023-04-02T07:36:34.169Z,100.00
2023-04-02T07:39:05.599Z,100.00
2023-04-02T07:41:36.063Z,100.00
2023-04-02T07:44:09.362Z,100.00
2023-04-02T07:46:53.136Z,100.00
2023-04-02T07:49:24.424Z,100.00
2023-04-02T07:51:55.971Z,100.00
2023-04-02T07:54:29.299Z,100.00
2023-04-02T07:56:58.422Z,100.00
2023-04-02T07:59:30.533Z,100.00
2023-04-02T08:01:59.698Z,100.00
2023-04-02T08:04:32.226Z,100.00
2023-04-02T08:07:02.711Z,100.00
2023-04-02T08:09:32.619Z,100.00
2023-04-02T08:12:01.738Z,100.00
2023-04-02T08:14:30.905Z,100.00
2023-04-02T08:19:57.776Z,100.00
2023-04-02T08:22:28.541Z,100.00
2023-04-02T08:24:58.464Z,100.00
2023-04-02T08:27:28.152Z,100.00
2023-04-02T08:29:57.681Z,100.00
2023-04-02T08:32:30.154Z,100.00
2023-04-02T08:34:59.995Z,100.00
2023-04-02T08:37:30.061Z,100.00
2023-04-02T08:40:00.197Z,100.00
2023-04-02T08:42:46.882Z,100.00
2023-04-02T08:45:38.276Z,100.00
2023-04-02T08:48:10.207Z,100.00
2023-04-02T08:50:41.769Z,100.00
2023-04-02T08:53:26.281Z,100.00
2023-04-02T08:56:18.249Z,100.00
2023-04-02T08:58:57.015Z,100.00
2023-04-02T09:01:52.635Z,100.00
2023-04-02T09:04:23.891Z,100.00
2023-04-02T09:06:55.237Z,100.00
2023-04-02T09:09:28.323Z,100.00
2023-04-02T09:12:05.345Z,100.00
2023-04-02T09:14:47.789Z,100.00
2023-04-02T09:17:25.260Z,100.00
2023-04-02T09:20:06.856Z,100.00
2023-04-02T09:22:37.162Z,100.00
2023-04-02T09:25:16.000Z,100.00
2023-04-02T09:27:47.685Z,100.00
2023-04-02T09:30:32.905Z,100.00
2023-04-02T09:33:08.210Z,100.00
2023-04-02T09:35:54.342Z,100.00
2023-04-02T09:38:34.217Z,100.00
2023-04-02T09:41:07.974Z,100.00
2023-04-02T09:43:40.173Z,100.00
2023-04-02T09:46:27.608Z,100.00
2023-04-02T09:48:59.753Z,100.00
2023-04-02T09:51:31.880Z,100.00
2023-04-02T09:54:04.814Z,100.00
2023-04-02T09:56:35.544Z,100.00
2023-04-02T09:59:06.205Z,100.00
2023-04-02T10:01:37.799Z,100.00
2023-04-02T10:04:06.121Z,100.00
2023-04-02T10:06:33.751Z,100.00
2023-04-02T10:09:28.945Z,100.00
2023-04-02T10:11:56.244Z,100.00
2023-04-02T10:14:26.030Z,100.00
2023-04-02T10:16:58.199Z,100.00
2023-04-02T10:19:33.484Z,100.00
2023-04-02T10:22:02.921Z,100.00
2023-04-02T10:24:29.918Z,100.00
2023-04-02T10:27:22.592Z,100.00
2023-04-02T10:30:11.254Z,100.00
2023-04-02T10:32:50.005Z,100.00
2023-04-02T10:35:21.638Z,100.00
2023-04-02T10:38:07.212Z,100.00
2023-04-02T10:40:40.145Z,100.00
2023-04-02T10:43:37.453Z,100.00
2023-04-02T10:46:27.662Z,100.00
2023-04-02T10:49:13.815Z,100.00
2023-04-02T10:51:48.684Z,100.00
2023-04-02T10:54:24.600Z,100.00
2023-04-02T10:56:53.331Z,100.00
2023-04-02T10:59:24.840Z,99.36
2023-04-02T11:01:51.821Z,99.01
2023-04-02T11:04:26.814Z,98.75
2023-04-02T11:07:11.192Z,98.77
2023-04-02T11:09:42.843Z,98.18
2023-04-02T11:12:17.211Z,96.92
2023-04-02T11:14:44.199Z,95.54
2023-04-02T11:17:12.466Z,95.06
2023-04-02T11:19:39.571Z,94.34
2023-04-02T11:22:17.703Z,93.54
2023-04-02T11:24:46.823Z,92.93
2023-04-02T11:27:33.682Z,91.45
2023-04-02T11:30:15.991Z,90.67
2023-04-02T11:32:49.324Z,89.61
2023-04-02T11:35:31.453Z,89.18
2023-04-02T11:38:12.638Z,87.39
2023-04-02T11:40:53.044Z,86.57
2023-04-02T11:43:35.974Z,85.70
2023-04-02T11:46:29.312Z,86.15
2023-04-02T11:49:37.939Z,85.73
2023-04-02T11:52:11.936Z,85.44
2023-04-02T11:54:39.595Z,83.99
2023-04-02T11:57:30.743Z,82.35
2023-04-02T12:00:26.415Z,82.81
2023-04-02T12:02:59.774Z,82.98
2023-04-02T12:05:27.568Z,83.01
2023-04-02T12:07:57.374Z,82.01
2023-04-02T12:10:25.032Z,81.62
2023-04-02T12:12:52.000Z,81.54
2023-04-02T12:15:32.747Z,80.70
2023-04-02T12:18:11.675Z,80.83
2023-04-02T12:20:38.581Z,81.00
2023-04-02T12:23:05.599Z,80.70
2023-04-02T12:25:40.319Z,80.89
2023-04-02T12:28:10.626Z,81.22
2023-04-02T12:30:38.249Z,81.77
2023-04-02T12:33:38.391Z,80.55
2023-04-02T12:36:10.070Z,80.47
2023-04-02T12:38:44.828Z,80.37
2023-04-02T12:41:24.296Z,79.46
2023-04-02T12:44:01.779Z,79.12
2023-04-02T12:46:29.954Z,79.00
2023-04-02T12:49:20.635Z,78.21
2023-04-02T12:51:48.486Z,77.86
2023-04-02T12:54:17.585Z,77.08
2023-04-02T12:56:44.504Z,75.90
2023-04-02T12:59:43.741Z,74.79
2023-04-02T13:02:21.857Z,74.12
2023-04-02T13:04:53.268Z,73.80
2023-04-02T13:07:21.787Z,73.64
2023-04-02T13:09:55.760Z,73.40
2023-04-02T13:12:36.916Z,73.84
2023-04-02T13:15:09.000Z,74.15
2023-04-02T13:17:43.730Z,74.26
2023-04-02T13:20:35.966Z,73.27
2023-04-02T13:23:30.722Z,73.34
2023-04-02T13:25:58.675Z,73.33
2023-04-02T13:28:25.615Z,72.80
2023-04-02T13:30:52.504Z,72.86
2023-04-02T13:33:20.483Z,72.70
2023-04-02T13:35:47.480Z,72.33
2023-04-02T13:38:14.437Z,72.05
2023-04-02T13:40:42.668Z,71.43
2023-04-02T13:43:15.704Z,71.51
2023-04-02T13:45:42.694Z,71.86
2023-04-02T13:48:10.405Z,71.45
2023-04-02T13:50:37.589Z,72.00
2023-04-02T13:53:07.814Z,72.13
2023-04-02T13:55:38.296Z,72.13
2023-04-02T13:58:05.467Z,72.65
2023-04-02T14:00:32.286Z,72.37
2023-04-02T14:03:02.839Z,71.67
2023-04-02T14:05:41.784Z,71.38
2023-04-02T14:08:22.270Z,70.38
2023-04-02T14:11:01.743Z,69.27
2023-04-02T14:14:03.621Z,68.78
2023-04-02T14:16:45.810Z,68.63
2023-04-02T14:19:27.920Z,68.77
2023-04-02T14:22:00.951Z,68.30
2023-04-02T14:24:41.148Z,68.50
2023-04-02T14:27:17.368Z,68.63
2023-04-02T14:29:44.164Z,68.92
2023-04-02T14:32:40.556Z,69.11
2023-04-02T14:35:24.700Z,68.95
2023-04-02T14:38:13.314Z,69.07
2023-04-02T14:40:50.249Z,69.08
2023-04-02T14:43:23.020Z,69.54
2023-04-02T14:46:04.126Z,69.92
2023-04-02T14:48:44.573Z,70.34
2023-04-02T14:51:40.968Z,70.68
2023-04-02T14:54:53.114Z,70.84
2023-04-02T14:57:31.664Z,70.98
2023-04-02T15:00:04.025Z,71.32
2023-04-02T15:02:30.942Z,71.54
2023-04-02T15:05:03.899Z,71.91
2023-04-02T15:07:38.413Z,72.11
2023-04-02T15:10:17.309Z,72.29
2023-04-02T15:12:45.676Z,72.65
2023-04-02T15:15:52.523Z,72.84
2023-04-02T15:18:19.559Z,73.06
2023-04-02T15:20:57.648Z,73.21
2023-04-02T15:23:49.130Z,73.58
2023-04-02T15:26:37.443Z,73.55
2023-04-02T15:29:25.831Z,73.69
2023-04-02T15:31:59.513Z,73.80
2023-04-02T15:34:32.386Z,73.87
2023-04-02T15:37:07.600Z,73.85
2023-04-02T15:40:22.213Z,73.20
2023-04-02T15:42:58.621Z,72.07
2023-04-02T15:45:29.390Z,71.50
2023-04-02T15:48:12.090Z,71.64
2023-04-02T15:51:16.663Z,71.64
2023-04-02T15:54:08.081Z,71.69
2023-04-02T15:56:51.122Z,71.77
2023-04-02T15:59:49.545Z,72.02
2023-04-02T16:02:39.790Z,71.99
2023-04-02T16:05:42.208Z,72.33
2023-04-02T16:08:24.246Z,72.44
2023-04-02T16:10:51.512Z,73.04
2023-04-02T16:13:28.520Z,73.25
2023-04-02T16:16:33.057Z,73.04
2023-04-02T16:19:02.885Z,73.37
2023-04-02T16:21:33.164Z,73.64
2023-04-02T16:24:00.190Z,73.32
2023-04-02T16:26:42.398Z,73.41
2023-04-02T16:29:24.213Z,73.31
2023-04-02T16:32:15.440Z,73.67
2023-04-02T16:34:51.383Z,73.78
2023-04-02T16:37:31.700Z,73.86
2023-04-02T16:40:22.308Z,74.06
2023-04-02T16:42:59.370Z,74.05
2023-04-02T16:45:45.058Z,74.63
2023-04-02T16:48:30.492Z,75.11
2023-04-02T16:51:21.241Z,75.45
2023-04-02T16:54:09.191Z,75.61
2023-04-02T16:56:48.055Z,76.10
2023-04-02T16:59:38.489Z,76.81
2023-04-02T17:02:20.721Z,77.03
2023-04-02T17:04:53.476Z,77.37
2023-04-02T17:07:27.525Z,77.90
2023-04-02T17:10:32.511Z,77.81
2023-04-02T17:13:03.677Z,77.83
2023-04-02T17:15:37.159Z,78.22
2023-04-02T17:18:24.879Z,78.31
2023-04-02T17:20:52.102Z,78.44
2023-04-02T17:23:19.592Z,78.83
2023-04-02T17:25:53.361Z,79.07
2023-04-02T17:28:25.705Z,79.52
2023-04-02T17:30:55.893Z,79.57
2023-04-02T17:33:26.748Z,79.81
2023-04-02T17:35:59.776Z,80.16
2023-04-02T17:38:38.771Z,80.30
2023-04-02T17:41:23.489Z,80.63
2023-04-02T17:43:58.331Z,80.55
2023-04-02T17:46:38.210Z,80.81
2023-04-02T17:49:23.171Z,81.08
2023-04-02T17:52:01.064Z,81.46
2023-04-02T17:55:25.365Z,81.35
2023-04-02T17:58:07.972Z,81.42
2023-04-02T18:00:57.705Z,81.31
2023-04-02T18:03:29.561Z,82.09
2023-04-02T18:06:15.892Z,82.18
2023-04-02T18:09:18.103Z,82.16
2023-04-02T18:12:25.783Z,82.09
2023-04-02T18:15:19.009Z,82.62
2023-04-02T18:17:54.170Z,82.57
2023-04-02T18:20:23.464Z,83.00
2023-04-02T18:23:14.973Z,83.34
2023-04-02T18:25:46.684Z,83.32
2023-04-02T18:28:24.669Z,83.70
2023-04-02T18:31:06.696Z,83.71
2023-04-02T18:34:21.151Z,83.82
2023-04-02T18:37:13.492Z,84.33
2023-04-02T18:40:00.090Z,84.61
2023-04-02T18:42:39.250Z,84.39
2023-04-02T18:45:17.907Z,85.00
2023-04-02T18:47:53.764Z,85.38
2023-04-02T18:50:35.321Z,85.28
2023-04-02T18:53:19.460Z,85.95
2023-04-02T18:55:57.895Z,86.48
2023-04-02T18:58:33.703Z,86.76
2023-04-02T19:01:00.710Z,87.17
2023-04-02T19:03:37.282Z,87.34
2023-04-02T19:06:11.898Z,87.42
2023-04-02T19:09:01.129Z,87.76
2023-04-02T19:11:31.669Z,87.75
2023-04-02T19:13:59.924Z,87.99
2023-04-02T19:16:35.981Z,88.65
2023-04-02T19:19:17.643Z,88.95
2023-04-02T19:22:03.498Z,89.49
2023-04-02T19:24:42.578Z,89.89
2023-04-02T19:27:27.526Z,90.07
2023-04-02T19:30:27.904Z,90.14
2023-04-02T19:33:25.055Z,90.36
2023-04-02T19:35:58.925Z,90.35
2023-04-02T19:38:55.002Z,90.78
2023-04-02T19:41:48.245Z,91.15
2023-04-02T19:44:15.554Z,90.94
2023-04-02T19:46:42.640Z,91.34
2023-04-02T19:49:26.537Z,91.80
2023-04-02T19:51:53.739Z,91.50
2023-04-02T19:54:20.559Z,91.47
2023-04-02T19:56:47.876Z,91.65
2023-04-02T19:59:18.063Z,91.60
2023-04-02T20:01:45.571Z,91.92
2023-04-02T20:04:12.589Z,92.32
2023-04-02T20:06:39.702Z,92.37
2023-04-02T20:09:08.215Z,92.30
2023-04-02T20:11:36.251Z,92.71
2023-04-02T20:14:03.193Z,92.54
2023-04-02T20:16:30.262Z,92.66
2023-04-02T20:18:57.764Z,93.01
2023-04-02T20:21:24.612Z,92.90
2023-04-02T20:23:55.342Z,93.05
2023-04-02T20:26:22.782Z,93.09
2023-04-02T20:28:49.880Z,93.14
2023-04-02T20:31:18.051Z,92.94
2023-04-02T20:33:45.464Z,93.10
2023-04-02T20:36:16.354Z,93.28
2023-04-02T20:38:43.569Z,93.04
2023-04-02T20:41:10.478Z,92.62
2023-04-02T20:43:40.544Z,92.66
2023-04-02T20:46:09.521Z,92.32
2023-04-02T20:48:37.905Z,92.52
2023-04-02T20:51:06.154Z,92.73
2023-04-02T20:53:34.501Z,92.30
2023-04-02T20:56:08.944Z,92.38
2023-04-02T20:58:36.224Z,92.53
2023-04-02T21:01:10.325Z,92.31
2023-04-02T21:03:37.427Z,91.93
2023-04-02T21:06:04.432Z,92.04
2023-04-02T21:08:31.276Z,92.03
2023-04-02T21:11:02.754Z,92.27
2023-04-02T21:13:30.980Z,92.15
2023-04-02T21:15:58.324Z,92.47
2023-04-02T21:18:25.435Z,92.51
2023-04-02T21:21:03.464Z,92.24
2023-04-02T21:23:30.864Z,92.01
2023-04-02T21:25:58.823Z,92.00
2023-04-02T21:28:25.837Z,92.01
2023-04-02T21:30:52.782Z,92.19
2023-04-02T21:33:19.737Z,92.80
2023-04-02T21:35:46.685Z,92.37
2023-04-02T21:38:13.626Z,92.84
2023-04-02T21:40:40.540Z,92.74
2023-04-02T21:43:07.448Z,92.19
2023-04-02T21:45:34.516Z,92.51
2023-04-02T21:48:01.714Z,92.46
2023-04-02T21:50:28.701Z,92.95
2023-04-02T21:52:55.669Z,93.13
2023-04-02T21:55:22.617Z,92.52
2023-04-02T21:57:49.538Z,92.69
2023-04-02T22:00:16.608Z,93.03
2023-04-02T22:02:43.487Z,92.86
2023-04-02T22:05:10.604Z,92.80
2023-04-02T22:07:37.534Z,92.55
2023-04-02T22:10:04.742Z,92.44
2023-04-02T22:12:31.716Z,92.47
2023-04-02T22:14:58.707Z,92.61
2023-04-02T22:17:25.591Z,92.53
2023-04-02T22:19:52.516Z,92.76
2023-04-02T22:22:19.591Z,92.73
2023-04-02T22:24:46.469Z,92.82
2023-04-02T22:27:13.380Z,92.98
2023-04-02T22:29:40.368Z,92.61
2023-04-02T22:32:07.368Z,92.38
2023-04-02T22:34:34.729Z,92.56
2023-04-02T22:37:01.734Z,92.68
2023-04-02T22:39:30.941Z,92.86
2023-04-02T22:41:57.845Z,92.92
2023-04-02T22:44:24.706Z,93.33
2023-04-02T22:46:51.658Z,93.22
2023-04-02T22:49:19.492Z,93.21
2023-04-02T22:51:46.698Z,93.02
2023-04-02T22:54:13.633Z,92.84
2023-04-02T22:56:41.198Z,93.33
2023-04-02T22:59:08.096Z,93.18
2023-04-02T23:01:35.665Z,93.08
2023-04-02T23:04:04.993Z,93.20
2023-04-02T23:06:32.110Z,93.11
2023-04-02T23:08:58.997Z,93.14
2023-04-02T23:11:27.549Z,93.39
2023-04-02T23:13:55.416Z,93.44
2023-04-02T23:16:23.057Z,93.88
2023-04-02T23:18:50.232Z,93.55
2023-04-02T23:21:17.520Z,94.03
2023-04-02T23:23:45.745Z,93.99
2023-04-02T23:26:17.978Z,94.25
2023-04-02T23:28:44.952Z,94.82
2023-04-02T23:31:13.590Z,94.70
2023-04-02T23:33:40.521Z,94.67
2023-04-02T23:36:28.802Z,94.93
2023-04-02T23:38:58.023Z,94.96
2023-04-02T23:41:27.019Z,95.25
2023-04-02T23:43:55.010Z,95.80
2023-04-02T23:46:22.939Z,95.73
2023-04-02T23:48:50.895Z,96.20
2023-04-02T23:51:18.041Z,95.99
2023-04-02T23:53:44.962Z,96.00
2023-04-02T23:56:11.972Z,96.28
2023-04-02T23:58:38.964Z,96.51
